Airfield :
LOGIN :

Register | Disclaimer

   EN    FR    IT 

 










Legend :    VFR   Marginal VFR   IFR   Intensive IFR   Very Intensive IFR
Visi :
Ceiling :
>= 8 km
>= 3000ft
5 to 8 km
1000 to 3000 ft
1500m to 5 km
500 to 1000 ft
800 to 1500m
200 to 500 ft
< 800m
< 200 ft
Symbols :   Thunderstorms  Fog  Heavy snow  Heavy precipitations  Wind > 20 kt
SIGMETs :     Misc.  Thunderstorms  Icing  Turbulence  Mountain Waves  Volcanic Ashes







- Airport Elevation : 1325 ft
- IATA code : EBU
- Download approach charts


LFMH - St-Etienne Boutheon

CURRENT METAR :
  • 170330Z AUTO VRB03KT 9999 BKN029 OVC038 05/03 Q1019 TEMPO BKN025TCU

EXPIRED METARs :
  • 170300Z AUTO 01005KT 9999 -SNRA FEW022 OVC030 05/04 Q1019 TEMPO BKN025TCU
  • 170230Z AUTO VRB02KT 9999 -RA BKN032 OVC038 05/04 Q1018 TEMPO BKN025TCU
  • 170200Z AUTO 00000KT 9999 -RA BKN036 OVC042 05/04 Q1017
  • 170130Z AUTO VRB01KT 7000 -RA BKN034 BKN040 OVC049 05/04 Q1017
  • 170100Z AUTO 17005KT 9999 -RA BKN035 OVC041 05/04 Q1016

TAF TAF LFMH
Valid from the 17 at 03:00 until the 18 at 03:00 UTC


170200Z 1703/1803 VRB05KT 9999 SCT020 BKN030
PROB30
TEMPO 1703/1706 -SHRA BKN025TCU
ATIS : +33 4 77 36 17 51
No reported NOTAMs for that airfield.
3 SIGMETs reported for the Marseille FIR (LFMM) :
 
Severe turbulence
LFMM SIGMET 4 VALID 170000/170400 LFPW
LFMM MARSEILLE FIR/UIR SEV TURB FCST S OF N4230 AND E OF E00830 SFC/FL100 STNR NC=
Severe turbulence
LFMM SIGMET 3 VALID 170000/170400 LFPW
LFMM MARSEILLE FIR/UIR SEV TURB FCST WI N4030 E00430 - N4200 E00430 - N4215 E00230 - N4330 E00245 - N4430 E00415 - N4130 E00615 - N4030 E00430 SFC/FL060 STNR NC=
Severe turbulence
LFMM SIGMET 1 VALID 170400/170800 LFPW
LFMM MARSEILLE FIR/UIR SEV TURB FCST WI N4030 E00430 - N4200 E00430 - N4215 E00230 - N4345 E00245 - N4500 E00400 - N4130 E00815 - N4030 E00430 SFC/FL060 STNR NC=



MET'MAP, your aeronautical weather chart ! - Copyright ORBIFLY December 2007 - Disclaimer

ORBIFLY MET'MAP TEAM :

Programming & Development : Alexandra Zaïnal
Concept & Development : Baudouin d'Aumeries
Co-Development & Prog : Marc-Olivier Méhu
Technical & hardware support : Manuel Goepfert

Contact : metmap@orbifly.com




SOURCES & CREDITS :

   NOAA